sensor_id;sensor_type;location;lat;lon;timestamp;temperature;humidity
17918;DHT22;9084;50.956;3.106;2023-06-26T00:01:33;21.10;99.90
17918;DHT22;9084;50.956;3.106;2023-06-26T00:04:01;21.00;99.90
17918;DHT22;9084;50.956;3.106;2023-06-26T00:06:29;21.00;99.90
17918;DHT22;9084;50.956;3.106;2023-06-26T00:09:00;20.90;99.90
17918;DHT22;9084;50.956;3.106;2023-06-26T00:11:26;21.00;99.90
17918;DHT22;9084;50.956;3.106;2023-06-26T00:14:01;21.00;99.90
17918;DHT22;9084;50.956;3.106;2023-06-26T00:16:27;21.00;99.90
17918;DHT22;9084;50.956;3.106;2023-06-26T00:18:54;21.00;99.90
17918;DHT22;9084;50.956;3.106;2023-06-26T00:21:20;21.00;99.90
17918;DHT22;9084;50.956;3.106;2023-06-26T00:23:46;21.00;99.90
17918;DHT22;9084;50.956;3.106;2023-06-26T00:26:14;20.90;99.90
17918;DHT22;9084;50.956;3.106;2023-06-26T00:28:42;20.90;99.90
17918;DHT22;9084;50.956;3.106;2023-06-26T00:31:12;20.90;99.90
17918;DHT22;9084;50.956;3.106;2023-06-26T00:33:38;20.90;99.90
17918;DHT22;9084;50.956;3.106;2023-06-26T00:36:03;20.90;99.90
17918;DHT22;9084;50.956;3.106;2023-06-26T00:38:32;20.80;99.90
17918;DHT22;9084;50.956;3.106;2023-06-26T00:40:57;20.90;99.90
17918;DHT22;9084;50.956;3.106;2023-06-26T00:43:23;20.80;99.90
17918;DHT22;9084;50.956;3.106;2023-06-26T00:45:51;20.80;99.90
17918;DHT22;9084;50.956;3.106;2023-06-26T00:48:17;20.70;99.90
17918;DHT22;9084;50.956;3.106;2023-06-26T00:50:48;20.70;99.90
17918;DHT22;9084;50.956;3.106;2023-06-26T00:53:14;20.60;99.90
17918;DHT22;9084;50.956;3.106;2023-06-26T00:55:39;20.60;99.90
17918;DHT22;9084;50.956;3.106;2023-06-26T00:58:05;20.50;99.90
17918;DHT22;9084;50.956;3.106;2023-06-26T01:00:35;20.50;99.90
17918;DHT22;9084;50.956;3.106;2023-06-26T01:03:03;20.40;99.90
17918;DHT22;9084;50.956;3.106;2023-06-26T01:05:32;20.30;99.90
17918;DHT22;9084;50.956;3.106;2023-06-26T01:07:58;20.30;99.90
17918;DHT22;9084;50.956;3.106;2023-06-26T01:10:26;20.30;99.90
17918;DHT22;9084;50.956;3.106;2023-06-26T01:12:54;20.20;99.90
17918;DHT22;9084;50.956;3.106;2023-06-26T01:15:20;20.20;99.90
17918;DHT22;9084;50.956;3.106;2023-06-26T01:17:50;20.10;99.90
17918;DHT22;9084;50.956;3.106;2023-06-26T01:20:16;20.10;99.90
17918;DHT22;9084;50.956;3.106;2023-06-26T01:22:53;20.00;99.90
17918;DHT22;9084;50.956;3.106;2023-06-26T01:28:16;19.90;99.90
17918;DHT22;9084;50.956;3.106;2023-06-26T01:30:44;19.80;99.90
17918;DHT22;9084;50.956;3.106;2023-06-26T01:33:12;19.80;99.90
17918;DHT22;9084;50.956;3.106;2023-06-26T01:35:40;19.70;99.90
17918;DHT22;9084;50.956;3.106;2023-06-26T01:38:13;19.70;99.90
17918;DHT22;9084;50.956;3.106;2023-06-26T01:40:39;19.60;99.90
17918;DHT22;9084;50.956;3.106;2023-06-26T01:43:19;19.60;99.90
17918;DHT22;9084;50.956;3.106;2023-06-26T01:45:50;19.60;99.90
17918;DHT22;9084;50.956;3.106;2023-06-26T01:48:22;19.50;99.90
17918;DHT22;9084;50.956;3.106;2023-06-26T01:50:52;19.40;99.90
17918;DHT22;9084;50.956;3.106;2023-06-26T01:53:24;19.40;99.90
17918;DHT22;9084;50.956;3.106;2023-06-26T01:55:54;19.30;99.90
17918;DHT22;9084;50.956;3.106;2023-06-26T01:58:24;19.30;99.90
17918;DHT22;9084;50.956;3.106;2023-06-26T02:00:50;19.30;99.90
17918;DHT22;9084;50.956;3.106;2023-06-26T02:03:19;19.20;99.90
17918;DHT22;9084;50.956;3.106;2023-06-26T02:05:45;19.20;99.90
17918;DHT22;9084;50.956;3.106;2023-06-26T02:08:14;19.20;99.90
17918;DHT22;9084;50.956;3.106;2023-06-26T02:10:42;19.10;99.90
17918;DHT22;9084;50.956;3.106;2023-06-26T02:13:08;19.10;99.90
17918;DHT22;9084;50.956;3.106;2023-06-26T02:15:36;19.00;99.90
17918;DHT22;9084;50.956;3.106;2023-06-26T02:18:01;19.00;99.90
17918;DHT22;9084;50.956;3.106;2023-06-26T02:20:27;19.00;99.90
17918;DHT22;9084;50.956;3.106;2023-06-26T02:22:52;18.90;99.90
17918;DHT22;9084;50.956;3.106;2023-06-26T02:25:20;18.90;99.90
17918;DHT22;9084;50.956;3.106;2023-06-26T02:27:46;18.90;99.90
17918;DHT22;9084;50.956;3.106;2023-06-26T02:30:14;18.80;99.90
17918;DHT22;9084;50.956;3.106;2023-06-26T02:32:39;18.80;99.90
17918;DHT22;9084;50.956;3.106;2023-06-26T02:35:05;18.80;99.90
17918;DHT22;9084;50.956;3.106;2023-06-26T02:37:31;18.70;99.90
17918;DHT22;9084;50.956;3.106;2023-06-26T02:39:59;18.70;99.90
17918;DHT22;9084;50.956;3.106;2023-06-26T02:42:25;18.60;99.90
17918;DHT22;9084;50.956;3.106;2023-06-26T02:44:50;18.60;99.90
17918;DHT22;9084;50.956;3.106;2023-06-26T02:47:16;18.60;99.90
17918;DHT22;9084;50.956;3.106;2023-06-26T02:49:41;18.50;99.90
17918;DHT22;9084;50.956;3.106;2023-06-26T02:52:09;18.50;99.90
17918;DHT22;9084;50.956;3.106;2023-06-26T02:54:37;18.50;99.90
17918;DHT22;9084;50.956;3.106;2023-06-26T02:57:03;18.50;99.90
17918;DHT22;9084;50.956;3.106;2023-06-26T02:59:34;18.40;99.90
17918;DHT22;9084;50.956;3.106;2023-06-26T03:02:00;18.40;99.90
17918;DHT22;9084;50.956;3.106;2023-06-26T03:04:27;18.40;99.90
17918;DHT22;9084;50.956;3.106;2023-06-26T03:06:55;18.40;99.90
17918;DHT22;9084;50.956;3.106;2023-06-26T03:09:21;18.30;99.90
17918;DHT22;9084;50.956;3.106;2023-06-26T03:11:47;18.30;99.90
17918;DHT22;9084;50.956;3.106;2023-06-26T03:14:16;18.30;99.90
17918;DHT22;9084;50.956;3.106;2023-06-26T03:16:41;18.20;99.90
17918;DHT22;9084;50.956;3.106;2023-06-26T03:19:07;18.20;99.90
17918;DHT22;9084;50.956;3.106;2023-06-26T03:21:33;18.10;99.90
17918;DHT22;9084;50.956;3.106;2023-06-26T03:23:58;18.00;99.90
17918;DHT22;9084;50.956;3.106;2023-06-26T03:26:24;18.00;99.90
17918;DHT22;9084;50.956;3.106;2023-06-26T03:28:55;18.00;99.90
17918;DHT22;9084;50.956;3.106;2023-06-26T03:31:21;18.00;99.90
17918;DHT22;9084;50.956;3.106;2023-06-26T03:33:49;18.00;99.90
17918;DHT22;9084;50.956;3.106;2023-06-26T03:36:14;17.90;99.90
17918;DHT22;9084;50.956;3.106;2023-06-26T03:38:40;17.90;99.90
17918;DHT22;9084;50.956;3.106;2023-06-26T03:41:06;17.90;99.90
17918;DHT22;9084;50.956;3.106;2023-06-26T03:43:32;17.90;99.90
17918;DHT22;9084;50.956;3.106;2023-06-26T03:45:57;17.90;99.90
17918;DHT22;9084;50.956;3.106;2023-06-26T03:48:23;17.90;99.90
17918;DHT22;9084;50.956;3.106;2023-06-26T03:50:49;17.90;99.90
17918;DHT22;9084;50.956;3.106;2023-06-26T03:53:15;17.90;99.90
17918;DHT22;9084;50.956;3.106;2023-06-26T03:55:40;17.80;99.90
17918;DHT22;9084;50.956;3.106;2023-06-26T03:58:11;17.80;99.90
17918;DHT22;9084;50.956;3.106;2023-06-26T04:00:36;17.80;99.90
17918;DHT22;9084;50.956;3.106;2023-06-26T04:03:07;17.80;99.90
17918;DHT22;9084;50.956;3.106;2023-06-26T04:05:34;17.80;99.90
17918;DHT22;9084;50.956;3.106;2023-06-26T04:08:02;17.80;99.90
17918;DHT22;9084;50.956;3.106;2023-06-26T04:10:30;17.70;99.90
17918;DHT22;9084;50.956;3.106;2023-06-26T04:12:56;17.70;99.90
17918;DHT22;9084;50.956;3.106;2023-06-26T04:15:23;17.70;99.90
17918;DHT22;9084;50.956;3.106;2023-06-26T04:17:51;17.70;99.90
17918;DHT22;9084;50.956;3.106;2023-06-26T04:20:17;17.70;99.90
17918;DHT22;9084;50.956;3.106;2023-06-26T04:22:42;17.70;99.90
17918;DHT22;9084;50.956;3.106;2023-06-26T04:25:09;17.80;99.90
17918;DHT22;9084;50.956;3.106;2023-06-26T04:27:39;17.80;99.90
17918;DHT22;9084;50.956;3.106;2023-06-26T04:30:05;17.80;99.90
17918;DHT22;9084;50.956;3.106;2023-06-26T04:32:31;17.80;99.90
17918;DHT22;9084;50.956;3.106;2023-06-26T04:34:59;17.90;99.90
17918;DHT22;9084;50.956;3.106;2023-06-26T04:37:25;17.90;99.90
17918;DHT22;9084;50.956;3.106;2023-06-26T04:39:53;17.80;99.90
17918;DHT22;9084;50.956;3.106;2023-06-26T04:42:21;17.80;99.90
17918;DHT22;9084;50.956;3.106;2023-06-26T04:44:47;17.80;99.90
17918;DHT22;9084;50.956;3.106;2023-06-26T04:47:13;17.80;99.90
17918;DHT22;9084;50.956;3.106;2023-06-26T04:49:41;17.90;99.90
17918;DHT22;9084;50.956;3.106;2023-06-26T04:52:13;17.80;99.90
17918;DHT22;9084;50.956;3.106;2023-06-26T04:54:41;17.80;99.90
17918;DHT22;9084;50.956;3.106;2023-06-26T04:57:07;17.90;99.90
17918;DHT22;9084;50.956;3.106;2023-06-26T04:59:34;17.90;99.90
17918;DHT22;9084;50.956;3.106;2023-06-26T05:01:59;17.90;99.90
17918;DHT22;9084;50.956;3.106;2023-06-26T05:04:30;17.90;99.90
17918;DHT22;9084;50.956;3.106;2023-06-26T05:06:58;17.90;99.90
17918;DHT22;9084;50.956;3.106;2023-06-26T05:09:23;17.90;99.90
17918;DHT22;9084;50.956;3.106;2023-06-26T05:11:51;17.90;99.90
17918;DHT22;9084;50.956;3.106;2023-06-26T05:14:17;18.00;99.90
17918;DHT22;9084;50.956;3.106;2023-06-26T05:16:43;18.00;99.90
17918;DHT22;9084;50.956;3.106;2023-06-26T05:19:08;18.00;99.90
17918;DHT22;9084;50.956;3.106;2023-06-26T05:21:34;18.10;99.90
17918;DHT22;9084;50.956;3.106;2023-06-26T05:24:02;18.10;99.90
17918;DHT22;9084;50.956;3.106;2023-06-26T05:26:31;18.10;99.90
17918;DHT22;9084;50.956;3.106;2023-06-26T05:28:57;18.20;99.90
17918;DHT22;9084;50.956;3.106;2023-06-26T05:31:26;18.20;99.90
17918;DHT22;9084;50.956;3.106;2023-06-26T05:33:55;18.20;99.90
17918;DHT22;9084;50.956;3.106;2023-06-26T05:36:24;18.30;99.90
17918;DHT22;9084;50.956;3.106;2023-06-26T05:38:50;18.30;99.90
17918;DHT22;9084;50.956;3.106;2023-06-26T05:41:16;18.40;99.90
17918;DHT22;9084;50.956;3.106;2023-06-26T05:43:42;18.40;99.90
17918;DHT22;9084;50.956;3.106;2023-06-26T05:46:08;18.50;99.90
17918;DHT22;9084;50.956;3.106;2023-06-26T05:48:33;18.50;99.90
17918;DHT22;9084;50.956;3.106;2023-06-26T05:51:01;18.50;99.90
17918;DHT22;9084;50.956;3.106;2023-06-26T05:53:30;18.50;99.90
17918;DHT22;9084;50.956;3.106;2023-06-26T05:55:56;18.60;99.90
17918;DHT22;9084;50.956;3.106;2023-06-26T05:58:24;18.60;99.90
17918;DHT22;9084;50.956;3.106;2023-06-26T06:00:51;18.60;99.90
17918;DHT22;9084;50.956;3.106;2023-06-26T06:03:17;18.60;99.90
17918;DHT22;9084;50.956;3.106;2023-06-26T06:05:42;18.70;99.90
17918;DHT22;9084;50.956;3.106;2023-06-26T06:08:13;18.80;99.90
17918;DHT22;9084;50.956;3.106;2023-06-26T06:10:38;18.80;99.90
17918;DHT22;9084;50.956;3.106;2023-06-26T06:13:06;18.90;99.90
17918;DHT22;9084;50.956;3.106;2023-06-26T06:15:35;18.90;99.90
17918;DHT22;9084;50.956;3.106;2023-06-26T06:18:00;18.80;99.90
17918;DHT22;9084;50.956;3.106;2023-06-26T06:20:26;18.90;99.90
17918;DHT22;9084;50.956;3.106;2023-06-26T06:22:52;19.00;99.90
17918;DHT22;9084;50.956;3.106;2023-06-26T06:25:20;19.10;99.90
17918;DHT22;9084;50.956;3.106;2023-06-26T06:27:49;19.10;99.90
17918;DHT22;9084;50.956;3.106;2023-06-26T06:30:16;19.10;99.90
17918;DHT22;9084;50.956;3.106;2023-06-26T06:32:42;19.10;99.90
17918;DHT22;9084;50.956;3.106;2023-06-26T06:35:10;19.20;99.90
17918;DHT22;9084;50.956;3.106;2023-06-26T06:37:39;19.30;99.90
17918;DHT22;9084;50.956;3.106;2023-06-26T06:40:06;19.30;99.90
17918;DHT22;9084;50.956;3.106;2023-06-26T06:42:32;19.30;99.90
17918;DHT22;9084;50.956;3.106;2023-06-26T06:45:01;19.40;99.90
17918;DHT22;9084;50.956;3.106;2023-06-26T06:47:32;19.50;99.90
17918;DHT22;9084;50.956;3.106;2023-06-26T06:49:58;19.50;99.90
17918;DHT22;9084;50.956;3.106;2023-06-26T06:52:36;19.60;99.90
17918;DHT22;9084;50.956;3.106;2023-06-26T06:55:02;19.60;99.90
17918;DHT22;9084;50.956;3.106;2023-06-26T06:57:37;19.70;99.90
17918;DHT22;9084;50.956;3.106;2023-06-26T07:00:08;19.70;99.90
17918;DHT22;9084;50.956;3.106;2023-06-26T07:02:40;19.80;99.90
17918;DHT22;9084;50.956;3.106;2023-06-26T07:05:08;19.70;99.90
17918;DHT22;9084;50.956;3.106;2023-06-26T07:07:37;19.80;99.90
17918;DHT22;9084;50.956;3.106;2023-06-26T07:10:08;19.80;99.90
17918;DHT22;9084;50.956;3.106;2023-06-26T07:12:37;19.80;99.90
17918;DHT22;9084;50.956;3.106;2023-06-26T07:15:04;19.90;99.90
17918;DHT22;9084;50.956;3.106;2023-06-26T07:17:31;19.90;99.90
17918;DHT22;9084;50.956;3.106;2023-06-26T07:20:00;20.00;99.90
17918;DHT22;9084;50.956;3.106;2023-06-26T07:22:30;20.00;99.90
17918;DHT22;9084;50.956;3.106;2023-06-26T07:24:56;20.10;99.90
17918;DHT22;9084;50.956;3.106;2023-06-26T07:27:26;20.10;99.90
17918;DHT22;9084;50.956;3.106;2023-06-26T07:29:52;20.20;99.90
17918;DHT22;9084;50.956;3.106;2023-06-26T07:32:18;20.30;99.90
17918;DHT22;9084;50.956;3.106;2023-06-26T07:34:43;20.30;99.10
17918;DHT22;9084;50.956;3.106;2023-06-26T07:37:09;20.30;99.50
17918;DHT22;9084;50.956;3.106;2023-06-26T07:39:34;20.40;99.90
17918;DHT22;9084;50.956;3.106;2023-06-26T07:42:00;20.50;99.20
17918;DHT22;9084;50.956;3.106;2023-06-26T07:44:28;20.70;99.20
17918;DHT22;9084;50.956;3.106;2023-06-26T07:46:57;21.00;97.70
17918;DHT22;9084;50.956;3.106;2023-06-26T07:49:24;21.10;96.30
17918;DHT22;9084;50.956;3.106;2023-06-26T07:51:50;21.20;95.90
17918;DHT22;9084;50.956;3.106;2023-06-26T07:54:18;21.20;95.30
17918;DHT22;9084;50.956;3.106;2023-06-26T07:56:58;21.20;95.60
17918;DHT22;9084;50.956;3.106;2023-06-26T07:59:27;21.20;95.00
17918;DHT22;9084;50.956;3.106;2023-06-26T08:01:57;21.30;94.70
17918;DHT22;9084;50.956;3.106;2023-06-26T08:04:27;21.50;94.80
17918;DHT22;9084;50.956;3.106;2023-06-26T08:06:56;21.50;94.70
17918;DHT22;9084;50.956;3.106;2023-06-26T08:09:25;21.50;94.80
17918;DHT22;9084;50.956;3.106;2023-06-26T08:11:51;21.60;93.80
17918;DHT22;9084;50.956;3.106;2023-06-26T08:14:20;21.80;92.90
17918;DHT22;9084;50.956;3.106;2023-06-26T08:16:49;21.90;92.80
17918;DHT22;9084;50.956;3.106;2023-06-26T08:19:16;22.10;91.20
17918;DHT22;9084;50.956;3.106;2023-06-26T08:21:45;22.10;90.70
17918;DHT22;9084;50.956;3.106;2023-06-26T08:24:14;22.10;90.80
17918;DHT22;9084;50.956;3.106;2023-06-26T08:26:45;22.00;90.30
17918;DHT22;9084;50.956;3.106;2023-06-26T08:29:14;22.00;88.90
17918;DHT22;9084;50.956;3.106;2023-06-26T08:31:42;22.10;88.10
17918;DHT22;9084;50.956;3.106;2023-06-26T08:34:10;22.20;89.40
17918;DHT22;9084;50.956;3.106;2023-06-26T08:36:36;22.30;89.90
17918;DHT22;9084;50.956;3.106;2023-06-26T08:39:04;22.20;88.80
17918;DHT22;9084;50.956;3.106;2023-06-26T08:41:30;22.10;87.50
17918;DHT22;9084;50.956;3.106;2023-06-26T08:43:58;22.00;88.60
17918;DHT22;9084;50.956;3.106;2023-06-26T08:46:24;22.00;87.00
17918;DHT22;9084;50.956;3.106;2023-06-26T08:49:14;22.00;86.30
17918;DHT22;9084;50.956;3.106;2023-06-26T08:51:51;22.00;86.30
17918;DHT22;9084;50.956;3.106;2023-06-26T08:54:26;22.00;87.10
17918;DHT22;9084;50.956;3.106;2023-06-26T08:56:54;22.10;85.70
17918;DHT22;9084;50.956;3.106;2023-06-26T08:59:21;22.10;86.90
17918;DHT22;9084;50.956;3.106;2023-06-26T09:01:50;22.10;84.30
17918;DHT22;9084;50.956;3.106;2023-06-26T09:04:15;22.10;84.90
17918;DHT22;9084;50.956;3.106;2023-06-26T09:06:44;22.10;85.60
17918;DHT22;9084;50.956;3.106;2023-06-26T09:09:09;22.20;85.70
17918;DHT22;9084;50.956;3.106;2023-06-26T09:11:36;22.10;83.40
17918;DHT22;9084;50.956;3.106;2023-06-26T09:14:06;22.10;82.50
17918;DHT22;9084;50.956;3.106;2023-06-26T09:16:40;22.00;81.30
17918;DHT22;9084;50.956;3.106;2023-06-26T09:19:13;22.10;81.50
17918;DHT22;9084;50.956;3.106;2023-06-26T09:21:43;22.10;81.20
17918;DHT22;9084;50.956;3.106;2023-06-26T09:24:12;22.20;80.30
17918;DHT22;9084;50.956;3.106;2023-06-26T09:26:39;22.20;80.10
17918;DHT22;9084;50.956;3.106;2023-06-26T09:29:09;22.30;80.70
17918;DHT22;9084;50.956;3.106;2023-06-26T09:31:40;22.40;81.70
17918;DHT22;9084;50.956;3.106;2023-06-26T09:34:08;22.60;78.80
17918;DHT22;9084;50.956;3.106;2023-06-26T09:36:37;22.80;77.40
17918;DHT22;9084;50.956;3.106;2023-06-26T09:39:06;22.90;77.90
17918;DHT22;9084;50.956;3.106;2023-06-26T09:41:40;23.30;75.40
17918;DHT22;9084;50.956;3.106;2023-06-26T09:44:06;23.50;73.80
17918;DHT22;9084;50.956;3.106;2023-06-26T09:46:34;23.60;72.00
17918;DHT22;9084;50.956;3.106;2023-06-26T09:49:10;23.80;72.90
17918;DHT22;9084;50.956;3.106;2023-06-26T09:51:39;23.90;70.80
17918;DHT22;9084;50.956;3.106;2023-06-26T09:54:08;24.20;70.50
17918;DHT22;9084;50.956;3.106;2023-06-26T09:56:36;24.30;67.40
17918;DHT22;9084;50.956;3.106;2023-06-26T09:59:04;24.30;66.60
17918;DHT22;9084;50.956;3.106;2023-06-26T10:01:31;24.20;67.70
17918;DHT22;9084;50.956;3.106;2023-06-26T10:04:00;24.20;67.10
17918;DHT22;9084;50.956;3.106;2023-06-26T10:06:33;24.20;69.30
17918;DHT22;9084;50.956;3.106;2023-06-26T10:09:03;24.10;66.90
17918;DHT22;9084;50.956;3.106;2023-06-26T10:11:41;24.10;68.60
17918;DHT22;9084;50.956;3.106;2023-06-26T10:14:11;24.00;67.90
17918;DHT22;9084;50.956;3.106;2023-06-26T10:16:37;24.00;67.90
17918;DHT22;9084;50.956;3.106;2023-06-26T10:19:06;24.20;68.70
17918;DHT22;9084;50.956;3.106;2023-06-26T10:21:34;24.20;66.20
17918;DHT22;9084;50.956;3.106;2023-06-26T10:24:03;24.30;67.00
17918;DHT22;9084;50.956;3.106;2023-06-26T10:26:38;24.50;67.50
17918;DHT22;9084;50.956;3.106;2023-06-26T10:29:04;24.60;65.90
17918;DHT22;9084;50.956;3.106;2023-06-26T10:31:32;24.70;64.60
17918;DHT22;9084;50.956;3.106;2023-06-26T10:33:58;24.40;65.40
17918;DHT22;9084;50.956;3.106;2023-06-26T10:36:31;24.10;65.00
17918;DHT22;9084;50.956;3.106;2023-06-26T10:39:02;23.70;66.20
17918;DHT22;9084;50.956;3.106;2023-06-26T10:41:36;23.50;65.60
17918;DHT22;9084;50.956;3.106;2023-06-26T10:46:35;23.40;66.90
17918;DHT22;9084;50.956;3.106;2023-06-26T10:49:13;23.60;65.80
17918;DHT22;9084;50.956;3.106;2023-06-26T10:51:46;23.80;65.10
17918;DHT22;9084;50.956;3.106;2023-06-26T10:54:15;24.00;66.00
17918;DHT22;9084;50.956;3.106;2023-06-26T10:59:32;24.30;65.20
17918;DHT22;9084;50.956;3.106;2023-06-26T11:02:02;24.40;63.90
17918;DHT22;9084;50.956;3.106;2023-06-26T11:07:24;24.50;66.90
17918;DHT22;9084;50.956;3.106;2023-06-26T11:12:42;24.00;66.20
17918;DHT22;9084;50.956;3.106;2023-06-26T11:15:16;24.20;65.40
17918;DHT22;9084;50.956;3.106;2023-06-26T11:17:43;24.40;65.00
17918;DHT22;9084;50.956;3.106;2023-06-26T11:20:12;24.60;64.10
17918;DHT22;9084;50.956;3.106;2023-06-26T11:22:44;24.70;61.90
17918;DHT22;9084;50.956;3.106;2023-06-26T11:25:10;24.70;63.50
17918;DHT22;9084;50.956;3.106;2023-06-26T11:27:45;24.70;64.10
17918;DHT22;9084;50.956;3.106;2023-06-26T11:30:23;24.70;62.50
17918;DHT22;9084;50.956;3.106;2023-06-26T11:33:01;24.90;61.80
17918;DHT22;9084;50.956;3.106;2023-06-26T11:35:32;24.90;63.60
17918;DHT22;9084;50.956;3.106;2023-06-26T11:38:03;24.90;61.80
17918;DHT22;9084;50.956;3.106;2023-06-26T11:40:35;24.70;63.80
17918;DHT22;9084;50.956;3.106;2023-06-26T11:43:02;24.70;64.50
17918;DHT22;9084;50.956;3.106;2023-06-26T11:45:34;24.60;64.50
17918;DHT22;9084;50.956;3.106;2023-06-26T11:48:00;24.50;63.70
17918;DHT22;9084;50.956;3.106;2023-06-26T11:50:27;24.70;63.70
17918;DHT22;9084;50.956;3.106;2023-06-26T11:53:02;24.90;64.70
17918;DHT22;9084;50.956;3.106;2023-06-26T11:55:41;25.10;62.60
17918;DHT22;9084;50.956;3.106;2023-06-26T11:58:10;25.30;61.40
17918;DHT22;9084;50.956;3.106;2023-06-26T12:00:43;25.40;59.70
17918;DHT22;9084;50.956;3.106;2023-06-26T12:03:10;25.20;61.30
17918;DHT22;9084;50.956;3.106;2023-06-26T12:05:35;25.00;62.60
17918;DHT22;9084;50.956;3.106;2023-06-26T12:08:04;24.80;64.20
17918;DHT22;9084;50.956;3.106;2023-06-26T12:10:32;24.50;63.20
17918;DHT22;9084;50.956;3.106;2023-06-26T12:13:01;24.50;65.80
17918;DHT22;9084;50.956;3.106;2023-06-26T12:15:29;24.40;65.10
17918;DHT22;9084;50.956;3.106;2023-06-26T12:17:55;24.70;63.80
17918;DHT22;9084;50.956;3.106;2023-06-26T12:20:22;24.80;65.70
17918;DHT22;9084;50.956;3.106;2023-06-26T12:22:51;24.90;64.90
17918;DHT22;9084;50.956;3.106;2023-06-26T12:25:24;25.00;64.70
17918;DHT22;9084;50.956;3.106;2023-06-26T12:27:50;25.10;65.30
17918;DHT22;9084;50.956;3.106;2023-06-26T12:30:15;25.00;65.50
17918;DHT22;9084;50.956;3.106;2023-06-26T12:32:45;24.80;67.20
17918;DHT22;9084;50.956;3.106;2023-06-26T12:35:12;24.60;67.40
17918;DHT22;9084;50.956;3.106;2023-06-26T12:37:42;24.40;68.30
17918;DHT22;9084;50.956;3.106;2023-06-26T12:40:19;24.30;68.90
17918;DHT22;9084;50.956;3.106;2023-06-26T12:42:50;24.40;67.40
17918;DHT22;9084;50.956;3.106;2023-06-26T12:45:20;24.50;66.20
17918;DHT22;9084;50.956;3.106;2023-06-26T12:47:45;24.50;65.80
17918;DHT22;9084;50.956;3.106;2023-06-26T12:50:12;24.50;65.70
17918;DHT22;9084;50.956;3.106;2023-06-26T12:52:37;24.50;64.50
17918;DHT22;9084;50.956;3.106;2023-06-26T12:55:05;24.30;65.80
17918;DHT22;9084;50.956;3.106;2023-06-26T12:57:33;24.30;64.40
17918;DHT22;9084;50.956;3.106;2023-06-26T12:59:59;24.30;63.30
17918;DHT22;9084;50.956;3.106;2023-06-26T13:02:28;24.40;63.00
17918;DHT22;9084;50.956;3.106;2023-06-26T13:04:54;24.60;63.00
17918;DHT22;9084;50.956;3.106;2023-06-26T13:07:20;24.70;61.20
17918;DHT22;9084;50.956;3.106;2023-06-26T13:09:45;24.90;60.80
17918;DHT22;9084;50.956;3.106;2023-06-26T13:12:16;25.00;58.90
17918;DHT22;9084;50.956;3.106;2023-06-26T13:14:41;25.10;59.20
17918;DHT22;9084;50.956;3.106;2023-06-26T13:17:07;25.20;60.10
17918;DHT22;9084;50.956;3.106;2023-06-26T13:19:33;25.10;59.90
17918;DHT22;9084;50.956;3.106;2023-06-26T13:22:01;25.10;59.30
17918;DHT22;9084;50.956;3.106;2023-06-26T13:24:26;25.00;59.60
17918;DHT22;9084;50.956;3.106;2023-06-26T13:26:52;25.00;60.80
17918;DHT22;9084;50.956;3.106;2023-06-26T13:29:20;25.30;59.10
17918;DHT22;9084;50.956;3.106;2023-06-26T13:31:45;25.40;60.70
17918;DHT22;9084;50.956;3.106;2023-06-26T13:34:23;25.40;59.70
17918;DHT22;9084;50.956;3.106;2023-06-26T13:36:49;25.20;61.00
17918;DHT22;9084;50.956;3.106;2023-06-26T13:39:16;25.10;58.50
17918;DHT22;9084;50.956;3.106;2023-06-26T13:41:42;24.90;60.00
17918;DHT22;9084;50.956;3.106;2023-06-26T13:44:10;24.90;59.20
17918;DHT22;9084;50.956;3.106;2023-06-26T13:46:40;25.00;60.40
17918;DHT22;9084;50.956;3.106;2023-06-26T13:49:08;25.10;59.40
17918;DHT22;9084;50.956;3.106;2023-06-26T13:51:34;25.10;60.30
17918;DHT22;9084;50.956;3.106;2023-06-26T13:53:59;25.10;58.30
17918;DHT22;9084;50.956;3.106;2023-06-26T13:56:28;24.80;59.60
17918;DHT22;9084;50.956;3.106;2023-06-26T13:58:55;24.80;59.40
17918;DHT22;9084;50.956;3.106;2023-06-26T14:01:21;24.70;59.00
17918;DHT22;9084;50.956;3.106;2023-06-26T14:03:51;24.70;60.70
17918;DHT22;9084;50.956;3.106;2023-06-26T14:06:18;24.70;59.40
17918;DHT22;9084;50.956;3.106;2023-06-26T14:08:47;24.50;59.50
17918;DHT22;9084;50.956;3.106;2023-06-26T14:11:15;24.40;61.00
17918;DHT22;9084;50.956;3.106;2023-06-26T14:13:43;24.30;61.00
17918;DHT22;9084;50.956;3.106;2023-06-26T14:16:11;24.20;61.90
17918;DHT22;9084;50.956;3.106;2023-06-26T14:18:37;24.20;64.30
17918;DHT22;9084;50.956;3.106;2023-06-26T14:21:05;24.10;65.60
17918;DHT22;9084;50.956;3.106;2023-06-26T14:23:33;24.20;66.70
17918;DHT22;9084;50.956;3.106;2023-06-26T14:26:02;24.30;67.90
17918;DHT22;9084;50.956;3.106;2023-06-26T14:28:27;24.60;65.20
17918;DHT22;9084;50.956;3.106;2023-06-26T14:30:57;24.80;65.20
17918;DHT22;9084;50.956;3.106;2023-06-26T14:33:23;25.00;64.80
17918;DHT22;9084;50.956;3.106;2023-06-26T14:35:51;25.00;64.70
17918;DHT22;9084;50.956;3.106;2023-06-26T14:38:21;24.90;64.20
17918;DHT22;9084;50.956;3.106;2023-06-26T14:40:46;24.80;65.20
17918;DHT22;9084;50.956;3.106;2023-06-26T14:43:12;24.70;65.50
17918;DHT22;9084;50.956;3.106;2023-06-26T14:45:41;24.70;64.10
17918;DHT22;9084;50.956;3.106;2023-06-26T14:48:09;24.70;64.60
17918;DHT22;9084;50.956;3.106;2023-06-26T14:50:35;25.00;65.40
17918;DHT22;9084;50.956;3.106;2023-06-26T14:53:00;25.10;63.60
17918;DHT22;9084;50.956;3.106;2023-06-26T14:55:30;25.10;64.10
17918;DHT22;9084;50.956;3.106;2023-06-26T14:57:58;24.90;64.60
17918;DHT22;9084;50.956;3.106;2023-06-26T15:00:24;24.70;65.60
17918;DHT22;9084;50.956;3.106;2023-06-26T15:02:50;24.40;66.20
17918;DHT22;9084;50.956;3.106;2023-06-26T15:05:21;24.20;66.30
17918;DHT22;9084;50.956;3.106;2023-06-26T15:07:51;23.90;67.10
17918;DHT22;9084;50.956;3.106;2023-06-26T15:10:22;23.70;68.50
17918;DHT22;9084;50.956;3.106;2023-06-26T15:12:50;23.60;69.10
17918;DHT22;9084;50.956;3.106;2023-06-26T15:15:15;23.50;69.30
17918;DHT22;9084;50.956;3.106;2023-06-26T15:17:43;23.50;69.30
17918;DHT22;9084;50.956;3.106;2023-06-26T15:20:09;23.40;70.50
17918;DHT22;9084;50.956;3.106;2023-06-26T15:22:35;23.40;71.10
17918;DHT22;9084;50.956;3.106;2023-06-26T15:25:02;23.30;71.10
17918;DHT22;9084;50.956;3.106;2023-06-26T15:27:28;23.10;71.90
17918;DHT22;9084;50.956;3.106;2023-06-26T15:29:54;23.00;72.50
17918;DHT22;9084;50.956;3.106;2023-06-26T15:32:24;23.00;72.70
17918;DHT22;9084;50.956;3.106;2023-06-26T15:34:49;22.80;72.80
17918;DHT22;9084;50.956;3.106;2023-06-26T15:37:17;22.70;74.20
17918;DHT22;9084;50.956;3.106;2023-06-26T15:39:45;22.60;74.10
17918;DHT22;9084;50.956;3.106;2023-06-26T15:42:16;22.40;74.10
17918;DHT22;9084;50.956;3.106;2023-06-26T15:44:44;22.30;75.00
17918;DHT22;9084;50.956;3.106;2023-06-26T15:47:10;22.20;75.50
17918;DHT22;9084;50.956;3.106;2023-06-26T15:49:38;22.20;76.00
17918;DHT22;9084;50.956;3.106;2023-06-26T15:52:04;22.10;75.40
17918;DHT22;9084;50.956;3.106;2023-06-26T15:54:30;22.20;75.00
17918;DHT22;9084;50.956;3.106;2023-06-26T15:56:57;22.30;74.50
17918;DHT22;9084;50.956;3.106;2023-06-26T15:59:23;22.40;73.00
17918;DHT22;9084;50.956;3.106;2023-06-26T16:01:51;22.40;73.80
17918;DHT22;9084;50.956;3.106;2023-06-26T16:04:17;22.30;74.00